Time;durP1;ratioP1;P1;durP2;ratioP2;P2;SDS_P1;SDS_P2;PMS_P1;PMS_P2;Temp;Humidity;BMP_temperature;BMP_pressure;BME280_temperature;BME280_humidity;BME280_pressure;Samples;Min_cycle;Max_cycle;Signal;HPM_P1;HPM_P2
2023/03/25 00:01:00;;;;;;;0.20;0.20;;;8.30;99.90;;;;;;5100147;28;20054;-82
2023/03/25 00:03:28;;;;;;;0.10;0.10;;;8.40;99.90;;;;;;5102027;28;20056;-82
2023/03/25 00:05:56;;;;;;;3.80;1.15;;;8.50;99.90;;;;;;5103956;28;20051;-82
2023/03/25 00:08:23;;;;;;;0.70;0.70;;;8.60;99.90;;;;;;5094356;28;20023;-82
2023/03/25 00:11:07;;;;;;;0.10;0.10;;;8.70;99.90;;;;;;5099832;28;20027;-82
2023/03/25 00:13:34;;;;;;;0.73;0.73;;;8.80;99.90;;;;;;5095937;28;20024;-82
2023/03/25 00:16:00;;;;;;;4.25;2.25;;;8.80;99.90;;;;;;5097533;28;20024;-82
2023/03/25 00:18:32;;;;;;;0.15;0.15;;;8.90;99.90;;;;;;5096341;28;20055;-81
2023/03/25 00:21:02;;;;;;;0.10;0.10;;;8.90;99.90;;;;;;5088834;28;20090;-81
2023/03/25 00:23:30;;;;;;;3.63;0.90;;;8.90;99.90;;;;;;5088019;28;20016;-80
2023/03/25 00:25:59;;;;;;;7.13;1.00;;;8.90;99.90;;;;;;5096079;28;20031;-81
2023/03/25 00:28:27;;;;;;;0.10;0.10;;;8.90;99.90;;;;;;5097639;28;20102;-81
2023/03/25 00:30:53;;;;;;;0.43;0.43;;;8.90;99.90;;;;;;5089879;28;20028;-81
2023/03/25 00:33:21;;;;;;;6.40;2.72;;;8.80;99.90;;;;;;5095866;28;20548;-81
2023/03/25 00:35:51;;;;;;;0.35;0.35;;;8.60;99.90;;;;;;5090415;28;20055;-80
2023/03/25 00:38:17;;;;;;;0.45;0.45;;;8.70;99.90;;;;;;5100679;28;20035;-81
2023/03/25 00:40:45;;;;;;;0.20;0.20;;;8.60;99.90;;;;;;5091467;28;20020;-81
2023/03/25 00:43:11;;;;;;;1.00;1.00;;;8.50;99.90;;;;;;5093617;28;20015;-80
2023/03/25 00:45:37;;;;;;;0.28;0.28;;;8.60;99.90;;;;;;5088783;28;20657;-80
2023/03/25 00:48:02;;;;;;;0.10;0.10;;;8.80;99.90;;;;;;5094372;28;20024;-81
2023/03/25 00:50:28;;;;;;;0.52;0.52;;;8.80;99.90;;;;;;5089006;28;20024;-80
2023/03/25 00:52:54;;;;;;;0.20;0.20;;;8.80;99.90;;;;;;5103208;28;20023;-80
2023/03/25 00:55:19;;;;;;;0.20;0.20;;;8.90;99.90;;;;;;5101054;28;20795;-81
2023/03/25 00:57:45;;;;;;;0.10;0.10;;;8.90;99.90;;;;;;5100255;28;20774;-81
2023/03/25 01:00:14;;;;;;;0.20;0.20;;;8.90;99.90;;;;;;5100161;28;20578;-81
2023/03/25 01:02:44;;;;;;;0.75;0.75;;;8.80;99.90;;;;;;5088578;28;20098;-81
2023/03/25 01:05:10;;;;;;;1.98;0.90;;;8.80;99.90;;;;;;5093126;28;20044;-81
2023/03/25 01:07:37;;;;;;;0.40;0.40;;;8.80;99.90;;;;;;5088251;28;20024;-81
2023/03/25 01:10:03;;;;;;;;;;;8.80;99.90;;;;;;5086661;28;20861;-82
2023/03/25 01:12:29;;;;;;;0.85;0.85;;;8.80;99.90;;;;;;5092647;28;19908;-81
2023/03/25 01:14:55;;;;;;;0.60;0.55;;;8.80;99.90;;;;;;5097235;28;20028;-83
2023/03/25 01:17:21;;;;;;;0.30;0.30;;;8.80;99.90;;;;;;5088982;28;20067;-81
2023/03/25 01:19:46;;;;;;;5.57;0.90;;;8.70;99.90;;;;;;5101807;28;20103;-82
2023/03/25 01:22:12;;;;;;;0.35;0.35;;;8.40;99.90;;;;;;5098157;28;20038;-82
2023/03/25 01:24:38;;;;;;;0.10;0.10;;;8.20;99.90;;;;;;5085154;28;20663;-82
2023/03/25 01:27:06;;;;;;;2.00;0.65;;;8.10;99.90;;;;;;5093286;28;20051;-82
2023/03/25 01:29:32;;;;;;;10.30;1.65;;;8.30;99.90;;;;;;5095751;28;20032;-81
2023/03/25 01:31:58;;;;;;;2.63;2.08;;;8.40;99.90;;;;;;5096842;28;20020;-82
2023/03/25 01:34:24;;;;;;;0.68;0.68;;;8.20;99.90;;;;;;5093855;28;20039;-84
2023/03/25 01:36:54;;;;;;;0.10;0.10;;;8.00;99.90;;;;;;5084074;28;20032;-83
2023/03/25 01:39:20;;;;;;;0.57;0.57;;;8.00;99.90;;;;;;5096711;28;20071;-83
2023/03/25 01:41:49;;;;;;;0.68;0.68;;;8.00;99.90;;;;;;5087391;28;20027;-82
2023/03/25 01:44:21;;;;;;;0.10;0.10;;;8.10;99.90;;;;;;5090881;28;20037;-83
2023/03/25 01:46:48;;;;;;;0.10;0.10;;;8.30;99.90;;;;;;5082914;28;20100;-84
2023/03/25 01:49:22;;;;;;;0.20;0.20;;;8.30;99.90;;;;;;5078333;28;20483;-83
2023/03/25 01:51:52;;;;;;;1.48;1.40;;;8.40;99.90;;;;;;5090793;28;20023;-83
2023/03/25 01:54:18;;;;;;;0.93;0.65;;;8.40;99.90;;;;;;5090199;28;20104;-81
2023/03/25 01:56:46;;;;;;;0.68;0.68;;;8.40;99.90;;;;;;5102119;28;20036;-83
2023/03/25 01:59:14;;;;;;;0.95;0.75;;;8.50;99.90;;;;;;5099488;28;20035;-82
2023/03/25 02:01:44;;;;;;;0.10;0.10;;;8.60;99.90;;;;;;5095791;28;20020;-81
2023/03/25 02:04:11;;;;;;;0.17;0.17;;;8.60;99.90;;;;;;5090179;28;20079;-81
2023/03/25 02:06:44;;;;;;;0.68;0.68;;;8.60;99.90;;;;;;5099722;28;20028;-80
2023/03/25 02:09:11;;;;;;;0.10;0.10;;;8.70;99.90;;;;;;5089292;28;20490;-81
2023/03/25 02:11:38;;;;;;;0.10;0.10;;;8.60;99.90;;;;;;5101616;28;20149;-79
2023/03/25 02:14:09;;;;;;;0.65;0.65;;;8.60;99.90;;;;;;5098643;28;20027;-79
2023/03/25 02:16:47;;;;;;;0.15;0.15;;;8.40;99.90;;;;;;5088721;28;20036;-80
2023/03/25 02:19:31;;;;;;;2.55;1.08;;;8.50;99.90;;;;;;5083974;28;20032;-81
2023/03/25 02:22:28;;;;;;;0.10;0.10;;;8.50;99.90;;;;;;5085216;28;20024;-80
2023/03/25 02:25:10;;;;;;;0.80;0.80;;;8.40;99.90;;;;;;5083110;28;20048;-80
2023/03/25 02:27:40;;;;;;;0.77;0.77;;;8.40;99.90;;;;;;5093347;28;20072;-81
2023/03/25 02:30:25;;;;;;;0.10;0.10;;;8.30;99.90;;;;;;5087436;28;20020;-79
2023/03/25 02:33:25;;;;;;;0.10;0.10;;;8.20;99.90;;;;;;5092575;28;20023;-79
2023/03/25 02:36:10;;;;;;;0.20;0.20;;;8.20;99.90;;;;;;5094939;28;20539;-84
2023/03/25 02:38:44;;;;;;;0.20;0.20;;;8.40;99.90;;;;;;5100443;28;20522;-81
2023/03/25 02:41:21;;;;;;;2.38;2.17;;;8.50;99.90;;;;;;5093076;28;20407;-81
2023/03/25 02:43:47;;;;;;;;;;;8.40;99.90;;;;;;5095980;28;20028;-81
2023/03/25 02:46:16;;;;;;;0.30;0.30;;;8.30;99.90;;;;;;5101656;28;19912;-80
2023/03/25 02:48:57;;;;;;;0.10;0.10;;;8.30;99.90;;;;;;5099054;28;20032;-82
2023/03/25 02:51:48;;;;;;;1.13;1.10;;;8.30;99.90;;;;;;5087443;28;20097;-80
2023/03/25 02:54:15;;;;;;;0.10;0.10;;;8.50;99.90;;;;;;5090190;28;20024;-81
2023/03/25 02:56:45;;;;;;;1.85;1.38;;;8.50;99.90;;;;;;5102889;28;20031;-80
2023/03/25 02:59:13;;;;;;;0.10;0.10;;;8.40;99.90;;;;;;5091662;28;20031;-81
2023/03/25 03:01:40;;;;;;;0.63;0.40;;;8.30;99.90;;;;;;5087567;28;20031;-80
2023/03/25 03:04:06;;;;;;;0.32;0.32;;;8.30;99.90;;;;;;5101165;28;20056;-80
2023/03/25 03:06:37;;;;;;;0.10;0.10;;;8.30;99.90;;;;;;5105565;28;20024;-81
2023/03/25 03:09:16;;;;;;;0.15;0.15;;;8.30;99.90;;;;;;5100389;28;20023;-80
2023/03/25 03:11:45;;;;;;;0.10;0.10;;;8.30;99.90;;;;;;5097435;28;20023;-81
2023/03/25 03:14:32;;;;;;;0.65;0.65;;;8.40;99.90;;;;;;5096646;28;20036;-81
2023/03/25 03:17:20;;;;;;;3.63;0.95;;;8.30;99.90;;;;;;5095146;27;20032;-82
2023/03/25 03:20:00;;;;;;;0.20;0.20;;;8.30;99.90;;;;;;5094382;28;20053;-83
2023/03/25 03:22:37;;;;;;;1.35;0.85;;;8.30;99.90;;;;;;5093979;28;20153;-80
2023/03/25 03:25:21;;;;;;;5.45;0.85;;;8.30;99.90;;;;;;5096589;28;20034;-83
2023/03/25 03:27:47;;;;;;;0.40;0.40;;;8.50;99.90;;;;;;5099832;28;20386;-81
2023/03/25 03:30:38;;;;;;;0.17;0.17;;;8.40;99.90;;;;;;5103460;28;20722;-80
2023/03/25 03:33:35;;;;;;;0.35;0.35;;;8.40;99.90;;;;;;5094537;28;20024;-79
2023/03/25 03:36:07;;;;;;;0.65;0.65;;;8.30;99.90;;;;;;5095522;28;20097;-80
2023/03/25 03:38:39;;;;;;;1.13;1.05;;;8.30;99.90;;;;;;5092361;28;20044;-80
2023/03/25 03:41:08;;;;;;;0.20;0.20;;;8.40;99.90;;;;;;5100941;28;20022;-79
2023/03/25 03:43:46;;;;;;;0.10;0.10;;;8.40;99.90;;;;;;5103387;28;20032;-81
2023/03/25 03:46:16;;;;;;;0.10;0.10;;;8.40;99.90;;;;;;5101226;28;20172;-83
2023/03/25 03:48:51;;;;;;;4.25;1.27;;;8.40;99.90;;;;;;5081210;28;20058;-81
2023/03/25 03:51:23;;;;;;;1.30;0.75;;;8.20;99.90;;;;;;5095943;28;20020;-81
2023/03/25 03:54:07;;;;;;;0.10;0.10;;;8.20;99.90;;;;;;5103675;28;20027;-80
2023/03/25 03:56:40;;;;;;;0.73;0.73;;;8.30;99.90;;;;;;5091527;28;20040;-83
2023/03/25 03:59:14;;;;;;;0.10;0.10;;;8.30;99.90;;;;;;5073732;28;20509;-84
2023/03/25 04:01:45;;;;;;;0.10;0.10;;;8.40;99.90;;;;;;5094908;28;20526;-81
2023/03/25 04:04:17;;;;;;;0.10;0.10;;;8.40;99.90;;;;;;5091289;28;20069;-80
2023/03/25 04:06:56;;;;;;;0.30;0.30;;;8.40;99.90;;;;;;5094516;28;20790;-82
2023/03/25 04:09:33;;;;;;;0.28;0.28;;;8.50;99.90;;;;;;5097082;28;20035;-83
2023/03/25 04:12:18;;;;;;;0.40;0.40;;;8.50;99.90;;;;;;5093928;28;20023;-79
2023/03/25 04:14:45;;;;;;;1.25;1.05;;;8.50;99.90;;;;;;5095830;28;20052;-79
2023/03/25 04:17:11;;;;;;;0.10;0.10;;;8.40;99.90;;;;;;5098968;28;20032;-81
2023/03/25 04:19:37;;;;;;;1.90;0.65;;;8.50;99.90;;;;;;5098876;28;20038;-79
2023/03/25 04:22:04;;;;;;;0.32;0.32;;;8.50;99.90;;;;;;5096685;28;20055;-81
2023/03/25 04:24:36;;;;;;;;;;;8.30;99.90;;;;;;5101084;28;20058;-81
2023/03/25 04:27:03;;;;;;;2.83;1.58;;;8.20;99.90;;;;;;5098755;28;19916;-80
2023/03/25 04:29:32;;;;;;;0.20;0.20;;;8.00;99.90;;;;;;5101052;28;20061;-80
2023/03/25 04:31:59;;;;;;;0.10;0.10;;;7.80;99.90;;;;;;5097189;28;20557;-81
2023/03/25 04:34:25;;;;;;;;;;;7.70;99.90;;;;;;5079208;28;20100;-82
2023/03/25 04:36:52;;;;;;;0.10;0.10;;;7.60;99.90;;;;;;5090982;28;20490;-80
2023/03/25 04:39:21;;;;;;;0.82;0.82;;;7.60;99.90;;;;;;5102367;28;20027;-81
2023/03/25 04:41:55;;;;;;;2.78;0.90;;;7.60;99.90;;;;;;5091578;28;20055;-81
2023/03/25 04:44:24;;;;;;;0.10;0.10;;;7.50;99.90;;;;;;5098329;28;20031;-81
2023/03/25 04:46:51;;;;;;;0.10;0.10;;;7.70;99.90;;;;;;5093313;28;20021;-77
2023/03/25 04:49:19;;;;;;;0.10;0.10;;;7.80;99.90;;;;;;5092504;28;20030;-81
2023/03/25 04:51:48;;;;;;;0.40;0.40;;;7.80;99.90;;;;;;5099274;28;20038;-81
2023/03/25 04:54:14;;;;;;;0.10;0.10;;;7.60;99.90;;;;;;5101117;27;20030;-82
2023/03/25 04:56:40;;;;;;;0.30;0.30;;;7.50;99.90;;;;;;5094503;28;20036;-80
2023/03/25 04:59:05;;;;;;;0.10;0.10;;;7.50;99.90;;;;;;5086228;28;20032;-81
2023/03/25 05:01:33;;;;;;;0.20;0.20;;;7.40;99.90;;;;;;5095156;28;20076;-82
2023/03/25 05:04:06;;;;;;;0.10;0.10;;;7.40;99.90;;;;;;5098443;28;20048;-81
2023/03/25 05:06:39;;;;;;;1.27;1.17;;;7.30;99.90;;;;;;5101030;28;20502;-81
2023/03/25 05:09:06;;;;;;;0.38;0.38;;;7.30;99.90;;;;;;5089975;28;20103;-81
2023/03/25 05:11:34;;;;;;;0.50;0.50;;;7.30;99.90;;;;;;5100639;28;20073;-81
2023/03/25 05:14:00;;;;;;;0.10;0.10;;;7.40;99.90;;;;;;5080441;28;20043;-83
2023/03/25 05:16:26;;;;;;;2.97;0.65;;;7.50;99.90;;;;;;5096978;28;20058;-84
2023/03/25 05:18:51;;;;;;;0.15;0.15;;;7.50;99.90;;;;;;5081975;28;20030;-81
2023/03/25 05:21:17;;;;;;;0.10;0.10;;;7.50;99.90;;;;;;5097884;28;20608;-80
2023/03/25 05:23:43;;;;;;;0.93;0.88;;;7.50;99.90;;;;;;5101458;28;20030;-81
2023/03/25 05:26:11;;;;;;;0.85;0.85;;;7.40;99.90;;;;;;5099472;28;20031;-81
2023/03/25 05:28:37;;;;;;;0.10;0.10;;;7.30;99.90;;;;;;5098073;28;20024;-83
2023/03/25 05:31:07;;;;;;;0.20;0.20;;;7.30;99.90;;;;;;5072672;28;20035;-81
2023/03/25 05:33:33;;;;;;;3.83;1.85;;;7.30;99.90;;;;;;5097965;28;20042;-82
2023/03/25 05:36:00;;;;;;;0.10;0.10;;;7.20;99.90;;;;;;5096217;28;20020;-82
2023/03/25 05:38:25;;;;;;;1.17;1.08;;;7.30;99.90;;;;;;5093529;28;20084;-80
2023/03/25 05:40:51;;;;;;;0.10;0.10;;;7.30;99.90;;;;;;5100341;28;20477;-83
2023/03/25 05:43:21;;;;;;;1.95;1.42;;;7.30;99.90;;;;;;5093747;28;20032;-80
2023/03/25 05:45:48;;;;;;;3.20;1.15;;;7.30;99.90;;;;;;5098910;28;20015;-80
2023/03/25 05:48:14;;;;;;;;;;;7.30;99.90;;;;;;5075335;28;20518;-80
2023/03/25 05:50:42;;;;;;;0.10;0.10;;;7.30;99.90;;;;;;5083753;28;19954;-80
2023/03/25 05:53:14;;;;;;;0.98;0.95;;;7.30;99.90;;;;;;5083548;28;20030;-79
2023/03/25 05:55:40;;;;;;;0.10;0.10;;;7.30;99.90;;;;;;5099980;27;20028;-82
2023/03/25 05:58:06;;;;;;;0.10;0.10;;;7.30;99.90;;;;;;5101549;28;20031;-81
2023/03/25 06:00:32;;;;;;;2.90;1.08;;;7.30;99.90;;;;;;5095167;28;20103;-82
2023/03/25 06:02:58;;;;;;;3.05;0.40;;;7.30;99.90;;;;;;5084688;28;20024;-81
2023/03/25 06:05:24;;;;;;;1.08;0.85;;;7.60;99.90;;;;;;5084502;28;20551;-83
2023/03/25 06:07:54;;;;;;;0.40;0.40;;;7.60;99.90;;;;;;5101074;28;20031;-82
2023/03/25 06:10:21;;;;;;;0.10;0.10;;;7.60;99.90;;;;;;5089296;28;20047;-82
2023/03/25 06:12:48;;;;;;;0.25;0.25;;;7.70;99.90;;;;;;5099010;28;20430;-82
2023/03/25 06:15:27;;;;;;;0.20;0.20;;;7.90;99.90;;;;;;5093827;28;20088;-83
2023/03/25 06:17:54;;;;;;;0.10;0.10;;;8.00;99.90;;;;;;5097981;28;20835;-82
2023/03/25 06:20:20;;;;;;;0.10;0.10;;;7.90;99.90;;;;;;5095949;28;20055;-81
2023/03/25 06:22:46;;;;;;;0.47;0.47;;;7.90;99.90;;;;;;5096050;28;20066;-83
2023/03/25 06:25:18;;;;;;;0.13;0.13;;;8.00;99.90;;;;;;5080263;28;20028;-81
2023/03/25 06:27:45;;;;;;;0.20;0.20;;;8.30;99.90;;;;;;5077948;28;20039;-81
2023/03/25 06:30:19;;;;;;;0.28;0.28;;;8.60;99.90;;;;;;5094510;28;20019;-80
2023/03/25 06:32:49;;;;;;;0.45;0.45;;;8.40;99.90;;;;;;5093015;28;20032;-80
2023/03/25 06:35:18;;;;;;;0.57;0.57;;;8.20;99.90;;;;;;5100755;28;20022;-82
2023/03/25 06:37:48;;;;;;;5.18;0.60;;;8.20;99.90;;;;;;5100337;28;20043;-82
2023/03/25 06:40:14;;;;;;;0.68;0.68;;;8.30;99.90;;;;;;5092595;28;20020;-82
2023/03/25 06:42:43;;;;;;;0.20;0.20;;;8.80;99.90;;;;;;5100790;28;20035;-83
2023/03/25 06:45:09;;;;;;;0.10;0.10;;;9.00;99.90;;;;;;5090738;28;20035;-82
2023/03/25 06:47:35;;;;;;;0.10;0.10;;;9.30;99.90;;;;;;5096907;28;20814;-82
2023/03/25 06:50:00;;;;;;;0.10;0.10;;;10.30;99.90;;;;;;5095150;28;20304;-82
2023/03/25 06:52:26;;;;;;;1.77;1.02;;;10.10;99.90;;;;;;5090199;28;20028;-83
2023/03/25 06:54:52;;;;;;;0.20;0.20;;;9.60;99.90;;;;;;5091748;28;20745;-82
2023/03/25 06:57:17;;;;;;;0.17;0.17;;;9.40;99.90;;;;;;5092004;28;20043;-83
2023/03/25 06:59:43;;;;;;;0.10;0.10;;;9.50;99.90;;;;;;5096743;28;20036;-83
2023/03/25 07:02:13;;;;;;;25.05;1.20;;;9.90;99.90;;;;;;5072719;28;20043;-85
2023/03/25 07:04:39;;;;;;;2.17;0.82;;;9.90;99.90;;;;;;5093785;28;20055;-85
2023/03/25 07:07:05;;;;;;;0.43;0.43;;;9.90;99.90;;;;;;5081450;28;20035;-83
2023/03/25 07:09:31;;;;;;;0.10;0.10;;;10.00;99.90;;;;;;5100820;28;20043;-84
2023/03/25 07:11:57;;;;;;;1.00;0.65;;;10.00;99.90;;;;;;5074834;28;20958;-85
2023/03/25 07:14:22;;;;;;;0.20;0.20;;;10.00;99.90;;;;;;5096490;28;20055;-84
2023/03/25 07:16:48;;;;;;;0.52;0.52;;;10.20;99.90;;;;;;5097180;28;20134;-84
2023/03/25 07:19:14;;;;;;;1.00;0.98;;;11.40;99.90;;;;;;5093782;28;20036;-85
2023/03/25 07:21:40;;;;;;;0.10;0.10;;;11.10;99.90;;;;;;5092934;28;20831;-86
2023/03/25 07:24:06;;;;;;;2.42;1.73;;;10.70;99.90;;;;;;5097670;28;20084;-85
2023/03/25 07:26:31;;;;;;;0.47;0.47;;;10.40;99.90;;;;;;5097972;28;20052;-84
2023/03/25 07:28:57;;;;;;;0.20;0.20;;;10.20;99.90;;;;;;5094697;28;20011;-83
2023/03/25 07:31:23;;;;;;;0.57;0.57;;;10.30;99.90;;;;;;5094707;28;20059;-84
2023/03/25 07:33:50;;;;;;;0.10;0.10;;;10.70;99.90;;;;;;5094518;28;20028;-85
2023/03/25 07:36:16;;;;;;;1.75;1.33;;;10.90;99.90;;;;;;5095704;28;20509;-83
2023/03/25 07:38:42;;;;;;;2.03;0.50;;;11.10;99.90;;;;;;5080171;28;20132;-85
2023/03/25 07:41:10;;;;;;;0.93;0.93;;;10.90;99.90;;;;;;5096586;28;20612;-83
2023/03/25 07:43:37;;;;;;;0.30;0.30;;;10.80;99.90;;;;;;5073686;28;20449;-84
2023/03/25 07:46:03;;;;;;;0.20;0.20;;;11.30;99.90;;;;;;5097880;28;20736;-84
2023/03/25 07:48:29;;;;;;;0.00;0.00;;;12.20;99.90;;;;;;5096422;28;20100;-83
2023/03/25 07:50:55;;;;;;;0.70;0.68;;;11.90;99.90;;;;;;5090597;28;20040;-83
2023/03/25 07:53:21;;;;;;;0.75;0.75;;;11.40;99.90;;;;;;5099353;28;20030;-83
2023/03/25 07:55:49;;;;;;;0.70;0.70;;;11.40;99.90;;;;;;5104039;28;20105;-83
2023/03/25 07:58:16;;;;;;;0.10;0.10;;;11.50;99.90;;;;;;5103444;28;20039;-82
2023/03/25 08:00:41;;;;;;;0.43;0.43;;;11.60;99.90;;;;;;5099961;28;20030;-82
2023/03/25 08:03:10;;;;;;;2.30;2.13;;;12.30;99.90;;;;;;5104241;28;20453;-81
2023/03/25 08:05:36;;;;;;;0.10;0.10;;;12.90;99.90;;;;;;5085705;28;20034;-81
2023/03/25 08:08:04;;;;;;;1.33;1.17;;;13.40;99.90;;;;;;5100541;28;20063;-81
2023/03/25 08:10:30;;;;;;;0.47;0.47;;;13.40;99.90;;;;;;5084149;28;20063;-82
2023/03/25 08:12:56;;;;;;;0.98;0.63;;;13.00;99.90;;;;;;5104672;28;20094;-81
2023/03/25 08:15:23;;;;;;;0.10;0.10;;;12.70;99.90;;;;;;5104060;28;20027;-82
2023/03/25 08:17:53;;;;;;;1.25;1.00;;;12.60;99.90;;;;;;5104549;28;20047;-83
2023/03/25 08:20:19;;;;;;;1.20;1.02;;;12.20;99.90;;;;;;5081983;28;20121;-83
2023/03/25 08:22:45;;;;;;;1.13;1.02;;;12.00;99.90;;;;;;5100025;28;20403;-81
2023/03/25 08:25:11;;;;;;;2.07;0.83;;;11.90;99.90;;;;;;5104631;28;20027;-82
2023/03/25 08:27:37;;;;;;;0.10;0.10;;;11.80;99.90;;;;;;5104360;28;20404;-82
2023/03/25 08:30:04;;;;;;;1.27;1.17;;;11.70;99.90;;;;;;5104092;28;20027;-81
2023/03/25 08:32:29;;;;;;;;;;;11.60;99.90;;;;;;5098970;28;20077;-83
2023/03/25 08:34:55;;;;;;;0.60;0.40;;;11.50;99.90;;;;;;5095506;28;19920;-82
2023/03/25 08:37:22;;;;;;;0.52;0.52;;;11.70;99.90;;;;;;5103601;28;20638;-82
2023/03/25 08:39:49;;;;;;;;;;;11.70;99.90;;;;;;5103124;28;20053;-84
2023/03/25 08:42:15;;;;;;;1.63;1.52;;;11.80;99.90;;;;;;5092208;28;19998;-83
2023/03/25 08:44:41;;;;;;;1.58;1.35;;;11.70;99.90;;;;;;5098283;28;20039;-81
2023/03/25 08:47:06;;;;;;;0.77;0.77;;;11.70;99.90;;;;;;5082460;28;20031;-81
2023/03/25 08:49:32;;;;;;;0.52;0.35;;;11.70;99.90;;;;;;5095201;28;20023;-82
2023/03/25 08:52:00;;;;;;;0.10;0.10;;;12.00;99.90;;;;;;5101540;28;20520;-82
2023/03/25 08:54:27;;;;;;;0.22;0.22;;;12.40;99.90;;;;;;5098795;28;20027;-81
2023/03/25 08:56:53;;;;;;;0.63;0.63;;;12.20;99.90;;;;;;5079967;28;20044;-81
2023/03/25 08:59:20;;;;;;;0.10;0.10;;;12.00;99.90;;;;;;5098186;28;20070;-83
2023/03/25 09:01:45;;;;;;;2.33;1.48;;;12.20;99.90;;;;;;5106962;28;20032;-80
2023/03/25 09:04:11;;;;;;;0.10;0.10;;;12.00;99.90;;;;;;5103289;28;20044;-82
2023/03/25 09:06:38;;;;;;;2.08;1.13;;;12.50;99.90;;;;;;5100243;28;20036;-80
2023/03/25 09:09:04;;;;;;;0.17;0.17;;;13.00;99.90;;;;;;5102746;28;20537;-85
2023/03/25 09:11:31;;;;;;;1.65;1.17;;;14.70;99.90;;;;;;5080576;28;20107;-80
2023/03/25 09:13:57;;;;;;;;;;;16.70;99.90;;;;;;5099927;28;20026;-79
2023/03/25 09:16:23;;;;;;;0.50;0.50;;;14.70;99.60;;;;;;5101617;28;19911;-79
2023/03/25 09:18:48;;;;;;;0.10;0.10;;;14.40;99.90;;;;;;5078457;28;20046;-80
2023/03/25 09:21:14;;;;;;;0.30;0.30;;;13.60;99.90;;;;;;5079880;28;20044;-81
2023/03/25 09:23:40;;;;;;;1.30;1.23;;;13.70;99.90;;;;;;5097277;28;20066;-81
2023/03/25 09:26:06;;;;;;;2.43;1.47;;;13.70;99.90;;;;;;5075441;28;20032;-80
2023/03/25 09:28:31;;;;;;;5.30;3.10;;;14.00;99.90;;;;;;5101642;28;20035;-83
2023/03/25 09:30:57;;;;;;;0.70;0.57;;;15.40;98.50;;;;;;5102194;28;20502;-78
2023/03/25 09:33:23;;;;;;;25.73;2.50;;;13.90;99.80;;;;;;5102140;28;20179;-82
2023/03/25 09:35:49;;;;;;;1.60;1.50;;;15.00;98.40;;;;;;5078391;28;20458;-81
2023/03/25 09:38:15;;;;;;;1.90;1.17;;;15.30;98.20;;;;;;5102480;28;20510;-82
2023/03/25 09:40:45;;;;;;;0.00;0.00;;;15.00;97.30;;;;;;5093243;28;20153;-79
2023/03/25 09:43:19;;;;;;;0.10;0.10;;;14.60;97.70;;;;;;5098550;28;20415;-81
2023/03/25 09:45:47;;;;;;;0.85;0.85;;;14.20;98.40;;;;;;5090011;28;20032;-82
2023/03/25 09:48:22;;;;;;;1.88;1.75;;;14.50;98.10;;;;;;5079941;28;20781;-79
2023/03/25 09:50:48;;;;;;;1.27;1.17;;;14.80;98.50;;;;;;5098289;28;20027;-80
2023/03/25 09:53:30;;;;;;;0.75;0.75;;;14.10;98.60;;;;;;5081990;28;20019;-83
2023/03/25 09:55:56;;;;;;;0.77;0.77;;;13.70;98.30;;;;;;5099681;28;20027;-82
2023/03/25 09:58:47;;;;;;;1.05;0.80;;;13.80;97.70;;;;;;5099480;28;20035;-79
2023/03/25 10:01:31;;;;;;;0.43;0.43;;;14.40;97.20;;;;;;5099017;28;20059;-81
2023/03/25 10:04:12;;;;;;;0.22;0.22;;;15.10;96.50;;;;;;5083661;28;20047;-79
2023/03/25 10:07:02;;;;;;;0.00;0.00;;;15.30;96.00;;;;;;5101886;28;20088;-80
2023/03/25 10:09:37;;;;;;;0.10;0.10;;;16.10;95.80;;;;;;5098698;28;20046;-79
2023/03/25 10:12:28;;;;;;;0.22;0.22;;;15.80;92.80;;;;;;5079405;28;20035;-79
2023/03/25 10:15:12;;;;;;;0.10;0.10;;;16.10;95.70;;;;;;5092131;28;20136;-80
2023/03/25 10:18:15;;;;;;;0.00;0.00;;;15.40;95.60;;;;;;5092421;28;20061;-80
2023/03/25 10:21:00;;;;;;;0.60;0.60;;;15.40;93.90;;;;;;5099383;28;20097;-78
2023/03/25 10:23:42;;;;;;;0.85;0.85;;;15.20;94.00;;;;;;5100677;28;20055;-80
2023/03/25 10:26:29;;;;;;;0.80;0.57;;;16.00;93.50;;;;;;5097391;28;20028;-80
2023/03/25 10:29:11;;;;;;;4.03;2.25;;;16.00;93.10;;;;;;5101278;28;20381;-80
2023/03/25 10:31:48;;;;;;;3.20;2.28;;;15.20;91.80;;;;;;5095520;28;20027;-79
2023/03/25 10:34:17;;;;;;;1.38;0.80;;;15.60;93.00;;;;;;5091914;28;20051;-82
2023/03/25 10:36:53;;;;;;;5.65;1.45;;;15.50;93.70;;;;;;5070309;28;20473;-82
2023/03/25 10:39:21;;;;;;;0.13;0.13;;;15.20;93.40;;;;;;5102007;28;20038;-80
2023/03/25 10:42:00;;;;;;;1.10;1.00;;;15.50;93.20;;;;;;5098609;28;20515;-79
2023/03/25 10:44:27;;;;;;;2.47;1.23;;;15.00;93.70;;;;;;5095618;28;20035;-80
2023/03/25 10:46:59;;;;;;;0.73;0.73;;;14.60;93.60;;;;;;5076168;28;20035;-79
2023/03/25 10:49:28;;;;;;;0.55;0.55;;;14.60;93.10;;;;;;5093398;28;20102;-82
2023/03/25 10:51:56;;;;;;;8.68;1.38;;;14.40;94.50;;;;;;5101371;28;20024;-82
2023/03/25 10:54:28;;;;;;;1.85;1.42;;;14.50;95.10;;;;;;5083903;28;20028;-80
2023/03/25 10:56:57;;;;;;;2.95;1.30;;;15.50;95.10;;;;;;5098889;28;20611;-82
2023/03/25 10:59:34;;;;;;;0.20;0.20;;;15.50;93.60;;;;;;5083679;28;20105;-79
2023/03/25 11:02:10;;;;;;;0.57;0.47;;;15.60;94.30;;;;;;5100489;28;20028;-81
2023/03/25 11:04:40;;;;;;;0.88;0.82;;;15.70;95.00;;;;;;5093336;28;20055;-80
2023/03/25 11:07:18;;;;;;;1.48;1.38;;;15.40;94.00;;;;;;5100134;28;20032;-81
2023/03/25 11:09:44;;;;;;;1.20;1.15;;;15.20;91.70;;;;;;5075078;28;20036;-81
2023/03/25 11:12:09;;;;;;;0.10;0.10;;;15.20;90.80;;;;;;5100262;28;20081;-79
2023/03/25 11:14:38;;;;;;;1.10;0.77;;;15.30;92.80;;;;;;5101863;28;20901;-84
2023/03/25 11:17:13;;;;;;;0.20;0.20;;;15.20;92.50;;;;;;5092482;28;20482;-79
2023/03/25 11:20:09;;;;;;;4.53;1.50;;;15.00;92.80;;;;;;5104898;28;20020;-79
2023/03/25 11:22:37;;;;;;;0.88;0.88;;;14.60;93.00;;;;;;5098494;28;20036;-82
2023/03/25 11:25:17;;;;;;;0.88;0.80;;;14.00;93.70;;;;;;5088347;28;20614;-80
2023/03/25 11:28:03;;;;;;;0.98;0.50;;;14.10;94.00;;;;;;5096719;28;20031;-80
2023/03/25 11:30:29;;;;;;;;;;;14.60;93.90;;;;;;5099627;28;20024;-81
2023/03/25 11:33:04;;;;;;;0.55;0.35;;;14.50;93.90;;;;;;5096993;28;19931;-84
2023/03/25 11:35:35;;;;;;;9.05;1.27;;;14.80;93.60;;;;;;5104607;28;20776;-81
2023/03/25 11:38:15;;;;;;;0.30;0.30;;;14.60;93.00;;;;;;5104575;28;20035;-82
2023/03/25 11:41:01;;;;;;;0.93;0.85;;;14.30;92.20;;;;;;5093333;28;20035;-85
2023/03/25 11:43:38;;;;;;;3.63;1.00;;;14.40;92.30;;;;;;5099139;28;20480;-80
2023/03/25 11:46:13;;;;;;;0.17;0.17;;;14.60;92.10;;;;;;5102760;28;20035;-81
2023/03/25 11:48:41;;;;;;;0.22;0.22;;;15.20;92.20;;;;;;5100606;28;20051;-79
2023/03/25 11:51:17;;;;;;;1.83;1.73;;;15.30;91.80;;;;;;5094107;28;20034;-80
2023/03/25 11:53:52;;;;;;;0.25;0.25;;;15.10;91.10;;;;;;5094800;28;20039;-79
2023/03/25 11:56:23;;;;;;;0.30;0.30;;;14.90;91.70;;;;;;5094364;28;20560;-79
2023/03/25 11:58:50;;;;;;;3.40;0.52;;;14.40;92.60;;;;;;5091355;28;20089;-80
2023/03/25 12:01:22;;;;;;;0.10;0.10;;;14.20;93.20;;;;;;5098086;28;20035;-81
2023/03/25 12:03:48;;;;;;;0.68;0.68;;;14.70;92.80;;;;;;5098738;28;20227;-82
2023/03/25 12:06:18;;;;;;;0.10;0.10;;;14.60;93.10;;;;;;5103276;28;20495;-83
2023/03/25 12:08:48;;;;;;;13.32;1.55;;;14.80;92.60;;;;;;5103263;27;20020;-82
2023/03/25 12:11:17;;;;;;;0.20;0.20;;;14.90;92.10;;;;;;5090308;28;20035;-80
2023/03/25 12:14:00;;;;;;;0.25;0.25;;;15.20;91.80;;;;;;5096680;28;20061;-80
2023/03/25 12:16:49;;;;;;;0.28;0.28;;;15.80;92.40;;;;;;5096450;28;20067;-80
2023/03/25 12:19:45;;;;;;;0.00;0.00;;;15.80;91.80;;;;;;5099782;28;20046;-81
2023/03/25 12:22:56;;;;;;;1.65;1.50;;;15.70;92.00;;;;;;5088572;28;20102;-80
2023/03/25 12:25:33;;;;;;;18.80;1.38;;;16.00;91.50;;;;;;5107309;27;20363;-81
2023/03/25 12:28:46;;;;;;;0.10;0.10;;;16.10;90.90;;;;;;5098510;28;20036;-82
2023/03/25 12:31:46;;;;;;;3.08;0.90;;;16.20;90.50;;;;;;5088724;28;20038;-81
2023/03/25 12:34:26;;;;;;;0.10;0.10;;;16.00;86.70;;;;;;5093289;28;20035;-82
2023/03/25 12:37:29;;;;;;;1.30;1.08;;;16.40;91.10;;;;;;5092782;28;20056;-80
2023/03/25 12:40:16;;;;;;;0.30;0.30;;;16.50;91.30;;;;;;5092333;28;20050;-80
2023/03/25 12:42:55;;;;;;;0.17;0.17;;;16.30;88.40;;;;;;5095115;28;20069;-81
2023/03/25 12:45:30;;;;;;;4.90;1.55;;;15.80;89.10;;;;;;5093178;28;20074;-80
2023/03/25 12:48:25;;;;;;;0.32;0.32;;;15.90;89.30;;;;;;5098275;28;20023;-82
2023/03/25 12:51:21;;;;;;;0.00;0.00;;;15.90;90.80;;;;;;5093876;28;20085;-81
2023/03/25 12:53:56;;;;;;;1.13;0.35;;;15.70;89.40;;;;;;5099858;28;20524;-80
2023/03/25 12:56:54;;;;;;;2.85;0.85;;;16.00;87.80;;;;;;5093120;28;20035;-84
2023/03/25 12:59:22;;;;;;;1.08;0.95;;;16.30;87.70;;;;;;5103348;28;20036;-83
2023/03/25 13:02:00;;;;;;;0.20;0.20;;;16.20;88.20;;;;;;5097234;28;20024;-84
2023/03/25 13:05:05;;;;;;;0.00;0.00;;;16.40;87.60;;;;;;5095950;28;20067;-81
2023/03/25 13:07:39;;;;;;;1.48;1.15;;;16.70;88.20;;;;;;5096742;28;20481;-85
2023/03/25 13:10:27;;;;;;;1.50;0.30;;;16.60;84.90;;;;;;5097369;28;20043;-82
2023/03/25 13:13:02;;;;;;;0.00;0.00;;;16.60;87.20;;;;;;5103305;28;20050;-82
2023/03/25 13:15:36;;;;;;;0.52;0.45;;;16.70;87.90;;;;;;5100887;28;21037;-83
2023/03/25 13:18:29;;;;;;;0.22;0.22;;;16.80;83.60;;;;;;5100787;28;20612;-81